Time,TemperatureF,DewpointF,PressureIn,WindDirection,WindDirectionDegrees,WindSpeedMPH,WindSpeedGustMPH,Humidity,HourlyPrecipIn,Conditions,Clouds,dailyrainin,SoftwareType,DateUTC
2015-08-01 00:02:00,64.9,52.6,28.95,West,268,2.9,3.2,64,0.00,,,0.00,proprietary,2015-08-01 04:02:00,
2015-08-01 00:08:00,64.9,52.9,28.95,WSW,253,2.5,2.9,64,0.00,,,0.00,proprietary,2015-08-01 04:08:00,
2015-08-01 00:13:00,64.8,52.6,28.95,West,259,3.3,4.4,64,0.00,,,0.00,proprietary,2015-08-01 04:13:00,
2015-08-01 00:18:00,64.8,52.8,28.95,WSW,252,2.7,3.3,65,0.00,,,0.00,proprietary,2015-08-01 04:18:00,
2015-08-01 00:23:00,64.6,53.1,28.95,WSW,257,2.0,2.3,66,0.00,,,0.00,proprietary,2015-08-01 04:23:00,
2015-08-01 00:28:00,64.3,53.0,28.95,WSW,258,2.0,2.6,66,0.00,,,0.00,proprietary,2015-08-01 04:28:00,
2015-08-01 00:33:00,64.2,53.3,28.95,West,263,2.1,2.3,67,0.00,,,0.00,proprietary,2015-08-01 04:33:00,
2015-08-01 00:38:00,63.9,53.3,28.95,WSW,253,2.0,2.2,68,0.00,,,0.00,proprietary,2015-08-01 04:38:00,
2015-08-01 00:43:00,64.1,53.1,28.95,West,262,1.9,2.2,67,0.00,,,0.00,proprietary,2015-08-01 04:43:00,
2015-08-01 00:48:00,64.0,53.3,28.95,WSW,250,2.0,2.2,68,0.00,,,0.00,proprietary,2015-08-01 04:48:00,
2015-08-01 00:53:00,63.6,53.5,28.95,West,259,2.1,2.4,69,0.00,,,0.00,proprietary,2015-08-01 04:53:00,
2015-08-01 00:58:00,63.2,53.3,28.95,West,267,2.8,3.2,70,0.00,,,0.00,proprietary,2015-08-01 04:58:00,
2015-08-01 01:03:00,63.5,53.1,28.95,West,267,2.6,3.0,68,0.00,,,0.00,proprietary,2015-08-01 05:03:00,
2015-08-01 01:08:00,63.3,53.0,28.95,West,267,2.6,2.9,69,0.00,,,0.00,proprietary,2015-08-01 05:08:00,
2015-08-01 01:13:00,63.2,53.0,28.95,WSW,252,2.1,2.7,69,0.00,,,0.00,proprietary,2015-08-01 05:13:00,
2015-08-01 01:18:00,63.2,52.9,28.95,WSW,257,1.8,2.0,69,0.00,,,0.00,proprietary,2015-08-01 05:18:00,
2015-08-01 01:23:00,63.4,53.1,28.95,WSW,252,1.8,2.1,69,0.00,,,0.00,proprietary,2015-08-01 05:23:00,
2015-08-01 01:28:00,63.3,53.3,28.95,WSW,254,1.8,2.1,69,0.00,,,0.00,proprietary,2015-08-01 05:28:00,
2015-08-01 01:33:00,62.9,53.4,28.95,West,273,2.3,2.7,71,0.00,,,0.00,proprietary,2015-08-01 05:33:00,
2015-08-01 01:38:00,62.2,53.8,28.95,WSW,256,2.1,2.6,73,0.00,,,0.00,proprietary,2015-08-01 05:38:00,
2015-08-01 01:43:00,62.1,53.5,28.95,West,267,2.4,2.7,73,0.00,,,0.00,proprietary,2015-08-01 05:43:00,
2015-08-01 01:48:00,62.0,53.6,28.95,West,264,2.1,2.2,73,0.00,,,0.00,proprietary,2015-08-01 05:48:00,
2015-08-01 01:53:00,61.9,53.2,28.95,West,273,2.9,3.5,73,0.00,,,0.00,proprietary,2015-08-01 05:53:00,
2015-08-01 01:58:00,61.9,53.3,28.95,West,262,1.9,2.3,73,0.00,,,0.00,proprietary,2015-08-01 05:58:00,
2015-08-01 02:03:00,61.9,53.5,28.95,West,277,2.8,3.1,73,0.00,,,0.00,proprietary,2015-08-01 06:03:00,
2015-08-01 02:08:00,62.0,53.3,28.95,West,274,2.7,2.8,73,0.00,,,0.00,proprietary,2015-08-01 06:08:00,
2015-08-01 02:13:00,62.0,53.2,28.95,West,262,2.4,3.0,72,0.00,,,0.00,proprietary,2015-08-01 06:13:00,
2015-08-01 02:18:00,62.0,53.3,28.95,West,270,2.6,3.0,72,0.00,,,0.00,proprietary,2015-08-01 06:18:00,
2015-08-01 02:23:00,62.1,53.3,28.95,West,280,2.3,2.9,72,0.00,,,0.00,proprietary,2015-08-01 06:23:00,
2015-08-01 02:28:00,62.3,53.4,28.95,West,279,2.8,3.4,72,0.00,,,0.00,proprietary,2015-08-01 06:28:00,
2015-08-01 02:33:00,62.4,53.6,28.95,WNW,290,2.9,3.8,72,0.00,,,0.00,proprietary,2015-08-01 06:33:00,
2015-08-01 02:38:00,62.9,53.2,28.95,WNW,293,3.8,4.5,70,0.00,,,0.00,proprietary,2015-08-01 06:38:00,
2015-08-01 02:43:00,62.8,53.4,28.95,West,271,1.7,1.9,71,0.00,,,0.00,proprietary,2015-08-01 06:43:00,
2015-08-01 02:48:00,62.6,53.2,28.95,WSW,257,1.5,1.9,71,0.00,,,0.00,proprietary,2015-08-01 06:48:00,
2015-08-01 02:53:00,62.2,53.3,28.95,West,268,2.2,2.4,72,0.00,,,0.00,proprietary,2015-08-01 06:53:00,
2015-08-01 02:58:00,62.1,53.0,28.95,WSW,254,2.6,3.3,72,0.00,,,0.00,proprietary,2015-08-01 06:58:00,
2015-08-01 03:03:00,61.7,53.3,28.95,West,272,2.1,2.4,73,0.00,,,0.00,proprietary,2015-08-01 07:03:00,
2015-08-01 03:08:00,61.3,53.5,28.95,West,272,2.1,2.4,75,0.00,,,0.00,proprietary,2015-08-01 07:08:00,
2015-08-01 03:13:00,61.3,53.4,28.95,West,268,2.5,3.1,75,0.00,,,0.00,proprietary,2015-08-01 07:13:00,
2015-08-01 03:18:00,61.2,53.5,28.95,West,271,2.4,2.7,75,0.00,,,0.00,proprietary,2015-08-01 07:18:00,
2015-08-01 03:23:00,60.8,53.2,28.95,West,281,2.8,3.7,76,0.00,,,0.00,proprietary,2015-08-01 07:23:00,
2015-08-01 03:28:00,60.9,53.2,28.95,West,275,2.9,3.2,75,0.00,,,0.00,proprietary,2015-08-01 07:28:00,
2015-08-01 03:33:00,61.0,53.1,28.95,West,265,3.3,3.5,75,0.00,,,0.00,proprietary,2015-08-01 07:33:00,
2015-08-01 03:38:00,60.9,53.4,28.95,WSW,250,2.1,2.4,76,0.00,,,0.00,proprietary,2015-08-01 07:38:00,
2015-08-01 03:43:00,60.2,53.3,28.95,West,277,2.8,3.3,77,0.00,,,0.00,proprietary,2015-08-01 07:43:00,
2015-08-01 03:48:00,60.2,53.2,28.95,West,270,2.6,2.9,77,0.00,,,0.00,proprietary,2015-08-01 07:48:00,
2015-08-01 03:53:00,60.1,53.5,28.95,West,261,2.5,2.8,78,0.00,,,0.00,proprietary,2015-08-01 07:53:00,
2015-08-01 03:58:00,60.1,53.5,28.95,West,262,2.6,3.1,78,0.00,,,0.00,proprietary,2015-08-01 07:58:00,
2015-08-01 04:03:00,59.9,53.7,28.95,WSW,245,2.2,2.3,79,0.00,,,0.00,proprietary,2015-08-01 08:03:00,
2015-08-01 04:08:00,59.8,53.8,28.95,West,267,1.5,1.6,80,0.00,,,0.00,proprietary,2015-08-01 08:08:00,
2015-08-01 04:13:00,59.6,53.7,28.95,WSW,258,3.0,3.3,80,0.00,,,0.00,proprietary,2015-08-01 08:13:00,
2015-08-01 04:18:00,59.6,53.9,28.95,WSW,249,2.6,3.0,81,0.00,,,0.00,proprietary,2015-08-01 08:18:00,
2015-08-01 04:23:00,59.5,53.8,28.95,West,263,2.4,2.7,81,0.00,,,0.00,proprietary,2015-08-01 08:23:00,
2015-08-01 04:28:00,59.2,53.4,28.95,West,264,3.4,3.9,80,0.00,,,0.00,proprietary,2015-08-01 08:28:00,
2015-08-01 04:33:00,59.1,53.5,28.95,WSW,255,2.9,3.4,81,0.00,,,0.00,proprietary,2015-08-01 08:33:00,
2015-08-01 04:38:00,59.2,53.7,28.95,WSW,248,2.9,3.6,81,0.00,,,0.00,proprietary,2015-08-01 08:38:00,
2015-08-01 04:43:00,59.1,53.6,28.95,West,264,2.5,2.9,81,0.00,,,0.00,proprietary,2015-08-01 08:43:00,
2015-08-01 04:48:00,59.0,53.5,28.95,West,266,2.5,2.7,81,0.00,,,0.00,proprietary,2015-08-01 08:48:00,
2015-08-01 04:53:00,59.0,53.5,28.95,West,263,2.5,3.2,82,0.00,,,0.00,proprietary,2015-08-01 08:53:00,
2015-08-01 04:58:00,59.0,53.7,28.95,WSW,254,2.5,2.9,82,0.00,,,0.00,proprietary,2015-08-01 08:58:00,
2015-08-01 05:03:00,59.1,53.7,28.95,WSW,256,2.6,3.2,82,0.00,,,0.00,proprietary,2015-08-01 09:03:00,
2015-08-01 05:08:00,59.0,53.7,28.95,WSW,256,2.7,3.1,82,0.00,,,0.00,proprietary,2015-08-01 09:08:00,
2015-08-01 05:13:00,58.7,53.7,28.95,WSW,254,2.4,2.9,83,0.00,,,0.00,proprietary,2015-08-01 09:13:00,
2015-08-01 05:18:00,58.6,53.6,28.95,WSW,258,3.1,3.6,83,0.00,,,0.00,proprietary,2015-08-01 09:18:00,
2015-08-01 05:23:00,58.6,53.8,28.95,West,263,2.6,2.9,83,0.00,,,0.00,proprietary,2015-08-01 09:23:00,
2015-08-01 05:28:00,58.5,53.6,28.95,West,265,3.1,3.2,83,0.00,,,0.00,proprietary,2015-08-01 09:28:00,
2015-08-01 05:33:00,58.4,53.6,28.96,West,269,2.8,3.3,84,0.00,,,0.00,proprietary,2015-08-01 09:33:00,
2015-08-01 05:38:00,58.3,53.7,28.96,West,267,3.1,4.1,84,0.00,,,0.00,proprietary,2015-08-01 09:38:00,
2015-08-01 05:43:00,58.5,53.8,28.96,WSW,250,2.6,3.2,84,0.00,,,0.00,proprietary,2015-08-01 09:43:00,
2015-08-01 05:48:00,58.2,53.8,28.96,West,266,2.7,2.9,84,0.00,,,0.00,proprietary,2015-08-01 09:48:00,
2015-08-01 05:53:00,58.1,53.8,28.96,WSW,255,2.4,2.7,85,0.00,,,0.00,proprietary,2015-08-01 09:53:00,
2015-08-01 05:58:00,58.5,54.1,28.96,WSW,249,2.2,2.5,85,0.00,,,0.00,proprietary,2015-08-01 09:58:00,
2015-08-01 06:03:00,58.4,54.0,28.96,West,273,2.4,2.7,85,0.00,,,0.00,proprietary,2015-08-01 10:03:00,
2015-08-01 06:08:00,58.1,54.0,28.96,West,262,2.9,3.5,86,0.00,,,0.00,proprietary,2015-08-01 10:08:00,
2015-08-01 06:13:00,58.0,54.0,28.96,West,261,3.7,4.0,86,0.00,,,0.00,proprietary,2015-08-01 10:13:00,
2015-08-01 06:18:00,58.1,54.2,28.96,West,265,1.9,2.5,86,0.00,,,0.00,proprietary,2015-08-01 10:18:00,
2015-08-01 06:23:00,57.9,54.2,28.96,West,267,2.6,2.8,87,0.00,,,0.00,proprietary,2015-08-01 10:23:00,
2015-08-01 06:28:00,58.2,54.2,28.96,West,261,3.2,3.8,86,0.00,,,0.00,proprietary,2015-08-01 10:28:00,
2015-08-01 06:33:00,58.0,54.3,28.96,West,278,2.9,3.4,87,0.00,,,0.00,proprietary,2015-08-01 10:33:00,
2015-08-01 06:38:00,58.4,54.6,28.96,West,280,3.2,3.5,87,0.00,,,0.00,proprietary,2015-08-01 10:38:00,
2015-08-01 06:43:00,58.6,54.8,28.96,WNW,285,3.7,4.2,87,0.00,,,0.00,proprietary,2015-08-01 10:43:00,
2015-08-01 06:48:00,58.7,54.7,28.97,WNW,284,3.9,4.6,86,0.00,,,0.00,proprietary,2015-08-01 10:48:00,
2015-08-01 06:53:00,58.6,54.8,28.97,West,280,3.2,3.9,87,0.00,,,0.00,proprietary,2015-08-01 10:53:00,
2015-08-01 06:58:00,58.7,54.8,28.97,West,261,3.7,4.4,86,0.00,,,0.00,proprietary,2015-08-01 10:58:00,
2015-08-01 07:03:00,58.6,54.9,28.97,West,263,3.9,4.3,87,0.00,,,0.00,proprietary,2015-08-01 11:03:00,
2015-08-01 07:08:00,59.0,55.2,28.97,West,259,4.1,4.8,87,0.00,,,0.00,proprietary,2015-08-01 11:08:00,
2015-08-01 07:13:00,59.5,55.3,28.97,WSW,250,2.8,4.2,86,0.00,,,0.00,proprietary,2015-08-01 11:13:00,
2015-08-01 07:18:00,59.2,55.4,28.97,WNW,285,3.9,4.4,86,0.00,,,0.00,proprietary,2015-08-01 11:18:00,
2015-08-01 07:23:00,59.5,55.5,28.97,West,267,3.5,3.8,86,0.00,,,0.00,proprietary,2015-08-01 11:23:00,
2015-08-01 07:28:00,59.9,55.8,28.97,WSW,242,3.0,3.8,86,0.00,,,0.00,proprietary,2015-08-01 11:28:00,
2015-08-01 07:33:00,60.6,56.0,28.97,West,277,3.2,4.3,84,0.00,,,0.00,proprietary,2015-08-01 11:33:00,
2015-08-01 07:38:00,60.7,56.0,28.97,WNW,287,5.1,6.6,84,0.00,,,0.00,proprietary,2015-08-01 11:38:00,
2015-08-01 07:43:00,60.8,56.2,28.97,West,264,4.3,5.0,84,0.00,,,0.00,proprietary,2015-08-01 11:43:00,
2015-08-01 07:48:00,61.2,56.3,28.97,West,271,4.6,5.4,83,0.00,,,0.00,proprietary,2015-08-01 11:48:00,
2015-08-01 07:53:00,61.9,56.9,28.97,WSW,253,4.2,5.1,83,0.00,,,0.00,proprietary,2015-08-01 11:53:00,
2015-08-01 07:58:00,62.1,56.6,28.97,WSW,254,3.7,4.7,82,0.00,,,0.00,proprietary,2015-08-01 11:58:00,
2015-08-01 08:03:00,62.4,57.0,28.97,WSW,257,4.3,5.6,82,0.00,,,0.00,proprietary,2015-08-01 12:03:00,
2015-08-01 08:08:00,62.7,57.1,28.97,WSW,256,5.5,6.9,81,0.00,,,0.00,proprietary,2015-08-01 12:08:00,
2015-08-01 08:13:00,63.1,57.4,28.97,WSW,244,5.7,6.1,81,0.00,,,0.00,proprietary,2015-08-01 12:13:00,
2015-08-01 08:18:00,63.6,58.0,28.97,WSW,249,6.0,7.1,81,0.00,,,0.00,proprietary,2015-08-01 12:18:00,
2015-08-01 08:23:00,63.8,57.9,28.97,West,262,4.6,5.6,81,0.00,,,0.00,proprietary,2015-08-01 12:23:00,
2015-08-01 08:28:00,64.6,58.7,28.97,West,277,4.6,6.6,81,0.00,,,0.00,proprietary,2015-08-01 12:28:00,
2015-08-01 08:33:00,64.8,58.4,28.97,West,262,4.7,5.9,79,0.00,,,0.00,proprietary,2015-08-01 12:33:00,
2015-08-01 08:38:00,65.2,58.5,28.97,West,277,4.6,5.8,78,0.00,,,0.00,proprietary,2015-08-01 12:38:00,
2015-08-01 08:43:00,65.8,58.8,28.97,WNW,285,5.8,6.7,78,0.00,,,0.00,proprietary,2015-08-01 12:43:00,
2015-08-01 08:48:00,66.0,58.6,28.97,WNW,284,6.2,9.1,76,0.00,,,0.00,proprietary,2015-08-01 12:48:00,
2015-08-01 08:53:00,66.4,58.9,28.97,West,268,7.6,8.7,76,0.00,,,0.00,proprietary,2015-08-01 12:53:00,
2015-08-01 08:58:00,66.9,58.8,28.97,West,266,6.0,8.2,75,0.00,,,0.00,proprietary,2015-08-01 12:58:00,
2015-08-01 09:03:00,66.8,58.1,28.97,West,277,7.9,10.3,73,0.00,,,0.00,proprietary,2015-08-01 13:03:00,
2015-08-01 09:08:00,67.6,58.6,28.97,West,281,5.8,7.9,72,0.00,,,0.00,proprietary,2015-08-01 13:08:00,